New Market, Maryland
Current Conditions -  °F | °C
As of 4:50 PM on Tuesday 21 Oct 2014 (Local Time) from KFDK Reporting Station
Overcast Overcast  
Wind Chill: 66°   Ceiling: 10000
Heat Index: 66°   Visibility: 10mi
Dew Point: 48°   Wind: 12mph
Humidity: 52%   Direction: 300°WNW
Pressure: 29.85"   Gusts: NA
Location:  39.38°N, 77.27°W
Report Text: KFDK 212050Z 30010KT 10SM OVC100 19/09 A2985
Loading
Personal Weather Stations






























Interactive Weather Map
Tropical Storm Tracking
New forecast layout! Learn more

10-Day Weather Forecast

Advertisements
Track Severe Weather on mobile